sensor_id;sensor_type;location;lat;lon;timestamp;P1;durP1;ratioP1;P2;durP2;ratioP2
13319;SDS011;59599;47.608;12.190;2022-07-23T00:06:34;8.02;;;5.53;;
13319;SDS011;59599;47.608;12.190;2022-07-23T00:09:00;6.88;;;5.60;;
13319;SDS011;59599;47.608;12.190;2022-07-23T00:11:26;8.25;;;6.03;;
13319;SDS011;59599;47.608;12.190;2022-07-23T00:13:52;9.52;;;5.82;;
13319;SDS011;59599;47.608;12.190;2022-07-23T00:16:19;7.57;;;6.25;;
13319;SDS011;59599;47.608;12.190;2022-07-23T00:18:45;8.25;;;6.07;;
13319;SDS011;59599;47.608;12.190;2022-07-23T00:21:11;6.65;;;5.72;;
13319;SDS011;59599;47.608;12.190;2022-07-23T00:23:37;7.82;;;5.93;;
13319;SDS011;59599;47.608;12.190;2022-07-23T00:26:03;6.13;;;5.60;;
13319;SDS011;59599;47.608;12.190;2022-07-23T00:28:32;7.65;;;5.80;;
13319;SDS011;59599;47.608;12.190;2022-07-23T00:30:58;5.97;;;5.38;;
13319;SDS011;59599;47.608;12.190;2022-07-23T00:33:24;6.72;;;5.40;;
13319;SDS011;59599;47.608;12.190;2022-07-23T00:35:50;6.07;;;5.15;;
13319;SDS011;59599;47.608;12.190;2022-07-23T00:38:16;7.68;;;4.68;;
13319;SDS011;59599;47.608;12.190;2022-07-23T00:40:42;6.63;;;5.03;;
13319;SDS011;59599;47.608;12.190;2022-07-23T00:43:07;7.32;;;4.85;;
13319;SDS011;59599;47.608;12.190;2022-07-23T00:45:34;6.20;;;4.75;;
13319;SDS011;59599;47.608;12.190;2022-07-23T00:48:00;5.88;;;5.28;;
13319;SDS011;59599;47.608;12.190;2022-07-23T00:50:26;6.60;;;5.65;;
13319;SDS011;59599;47.608;12.190;2022-07-23T00:52:52;6.38;;;5.70;;
13319;SDS011;59599;47.608;12.190;2022-07-23T00:55:18;6.35;;;5.63;;
13319;SDS011;59599;47.608;12.190;2022-07-23T00:57:43;6.88;;;6.07;;
13319;SDS011;59599;47.608;12.190;2022-07-23T01:00:10;7.80;;;5.85;;
13319;SDS011;59599;47.608;12.190;2022-07-23T01:02:37;8.05;;;5.10;;
13319;SDS011;59599;47.608;12.190;2022-07-23T01:05:03;6.07;;;5.38;;
13319;SDS011;59599;47.608;12.190;2022-07-23T01:07:29;9.55;;;5.47;;
13319;SDS011;59599;47.608;12.190;2022-07-23T01:09:55;8.15;;;5.05;;
13319;SDS011;59599;47.608;12.190;2022-07-23T01:12:21;8.13;;;6.13;;
13319;SDS011;59599;47.608;12.190;2022-07-23T01:14:57;5.60;;;5.10;;
13319;SDS011;59599;47.608;12.190;2022-07-23T01:17:24;5.85;;;5.25;;
13319;SDS011;59599;47.608;12.190;2022-07-23T01:19:50;6.35;;;5.30;;
13319;SDS011;59599;47.608;12.190;2022-07-23T01:22:17;7.60;;;5.63;;
13319;SDS011;59599;47.608;12.190;2022-07-23T01:24:44;6.10;;;5.35;;
13319;SDS011;59599;47.608;12.190;2022-07-23T01:27:10;7.20;;;5.40;;
13319;SDS011;59599;47.608;12.190;2022-07-23T01:29:37;5.47;;;4.97;;
13319;SDS011;59599;47.608;12.190;2022-07-23T01:32:03;7.03;;;5.03;;
13319;SDS011;59599;47.608;12.190;2022-07-23T01:34:29;8.40;;;5.93;;
13319;SDS011;59599;47.608;12.190;2022-07-23T01:36:55;6.82;;;5.97;;
13319;SDS011;59599;47.608;12.190;2022-07-23T01:39:21;7.25;;;5.75;;
13319;SDS011;59599;47.608;12.190;2022-07-23T01:41:47;5.72;;;5.10;;
13319;SDS011;59599;47.608;12.190;2022-07-23T01:44:12;7.32;;;4.75;;
13319;SDS011;59599;47.608;12.190;2022-07-23T01:46:38;8.68;;;5.25;;
13319;SDS011;59599;47.608;12.190;2022-07-23T01:49:04;5.20;;;4.70;;
13319;SDS011;59599;47.608;12.190;2022-07-23T01:51:30;5.93;;;5.05;;
13319;SDS011;59599;47.608;12.190;2022-07-23T01:53:55;6.68;;;5.95;;
13319;SDS011;59599;47.608;12.190;2022-07-23T01:56:21;6.00;;;5.40;;
13319;SDS011;59599;47.608;12.190;2022-07-23T01:58:47;6.15;;;5.53;;
13319;SDS011;59599;47.608;12.190;2022-07-23T02:01:13;5.90;;;5.28;;
13319;SDS011;59599;47.608;12.190;2022-07-23T02:03:39;8.00;;;5.60;;
13319;SDS011;59599;47.608;12.190;2022-07-23T02:06:04;5.68;;;5.18;;
13319;SDS011;59599;47.608;12.190;2022-07-23T02:08:30;5.57;;;4.97;;
13319;SDS011;59599;47.608;12.190;2022-07-23T02:10:56;6.40;;;5.80;;
13319;SDS011;59599;47.608;12.190;2022-07-23T02:13:22;6.15;;;5.25;;
13319;SDS011;59599;47.608;12.190;2022-07-23T02:15:48;7.10;;;5.55;;
13319;SDS011;59599;47.608;12.190;2022-07-23T02:18:13;5.43;;;4.80;;
13319;SDS011;59599;47.608;12.190;2022-07-23T02:20:39;6.80;;;5.53;;
13319;SDS011;59599;47.608;12.190;2022-07-23T02:23:05;6.15;;;5.45;;
13319;SDS011;59599;47.608;12.190;2022-07-23T02:25:31;6.78;;;6.05;;
13319;SDS011;59599;47.608;12.190;2022-07-23T02:27:58;8.43;;;5.80;;
13319;SDS011;59599;47.608;12.190;2022-07-23T02:30:23;6.00;;;5.40;;
13319;SDS011;59599;47.608;12.190;2022-07-23T02:32:49;6.32;;;5.72;;
13319;SDS011;59599;47.608;12.190;2022-07-23T02:35:15;6.22;;;5.35;;
13319;SDS011;59599;47.608;12.190;2022-07-23T02:37:41;6.60;;;5.82;;
13319;SDS011;59599;47.608;12.190;2022-07-23T02:40:06;6.72;;;6.00;;
13319;SDS011;59599;47.608;12.190;2022-07-23T02:42:32;6.95;;;5.78;;
13319;SDS011;59599;47.608;12.190;2022-07-23T02:44:58;6.45;;;5.72;;
13319;SDS011;59599;47.608;12.190;2022-07-23T02:47:24;6.10;;;5.47;;
13319;SDS011;59599;47.608;12.190;2022-07-23T02:49:50;7.00;;;6.07;;
13319;SDS011;59599;47.608;12.190;2022-07-23T02:52:16;7.03;;;5.47;;
13319;SDS011;59599;47.608;12.190;2022-07-23T02:54:42;6.28;;;5.20;;
13319;SDS011;59599;47.608;12.190;2022-07-23T02:57:07;6.75;;;6.15;;
13319;SDS011;59599;47.608;12.190;2022-07-23T02:59:33;6.13;;;5.20;;
13319;SDS011;59599;47.608;12.190;2022-07-23T03:01:59;10.80;;;5.95;;
13319;SDS011;59599;47.608;12.190;2022-07-23T03:04:24;8.68;;;5.40;;
13319;SDS011;59599;47.608;12.190;2022-07-23T03:06:50;8.52;;;6.13;;
13319;SDS011;59599;47.608;12.190;2022-07-23T03:09:17;8.40;;;5.13;;
13319;SDS011;59599;47.608;12.190;2022-07-23T03:11:42;5.80;;;5.28;;
13319;SDS011;59599;47.608;12.190;2022-07-23T03:14:08;10.15;;;5.57;;
13319;SDS011;59599;47.608;12.190;2022-07-23T03:16:34;5.82;;;5.30;;
13319;SDS011;59599;47.608;12.190;2022-07-23T03:18:59;6.28;;;5.68;;
13319;SDS011;59599;47.608;12.190;2022-07-23T03:21:25;9.38;;;5.53;;
13319;SDS011;59599;47.608;12.190;2022-07-23T03:23:51;6.25;;;5.20;;
13319;SDS011;59599;47.608;12.190;2022-07-23T03:26:17;9.63;;;5.63;;
13319;SDS011;59599;47.608;12.190;2022-07-23T03:28:43;6.30;;;5.03;;
13319;SDS011;59599;47.608;12.190;2022-07-23T03:31:08;5.90;;;4.95;;
13319;SDS011;59599;47.608;12.190;2022-07-23T03:33:34;6.20;;;5.53;;
13319;SDS011;59599;47.608;12.190;2022-07-23T03:36:00;7.22;;;5.40;;
13319;SDS011;59599;47.608;12.190;2022-07-23T03:38:25;6.65;;;5.90;;
13319;SDS011;59599;47.608;12.190;2022-07-23T03:40:51;7.00;;;6.30;;
13319;SDS011;59599;47.608;12.190;2022-07-23T03:43:17;6.30;;;5.40;;
13319;SDS011;59599;47.608;12.190;2022-07-23T03:45:43;8.80;;;6.20;;
13319;SDS011;59599;47.608;12.190;2022-07-23T03:48:08;6.25;;;5.50;;
13319;SDS011;59599;47.608;12.190;2022-07-23T03:50:35;8.43;;;5.95;;
13319;SDS011;59599;47.608;12.190;2022-07-23T03:53:02;10.05;;;6.60;;
13319;SDS011;59599;47.608;12.190;2022-07-23T03:55:28;7.70;;;6.15;;
13319;SDS011;59599;47.608;12.190;2022-07-23T03:57:54;8.57;;;6.70;;
13319;SDS011;59599;47.608;12.190;2022-07-23T04:00:20;9.07;;;6.75;;
13319;SDS011;59599;47.608;12.190;2022-07-23T04:02:46;7.43;;;6.65;;
13319;SDS011;59599;47.608;12.190;2022-07-23T04:05:12;7.32;;;6.63;;
13319;SDS011;59599;47.608;12.190;2022-07-23T04:07:37;7.22;;;6.45;;
13319;SDS011;59599;47.608;12.190;2022-07-23T04:10:05;9.73;;;6.57;;
13319;SDS011;59599;47.608;12.190;2022-07-23T04:12:30;7.00;;;6.35;;
13319;SDS011;59599;47.608;12.190;2022-07-23T04:14:56;9.68;;;5.80;;
13319;SDS011;59599;47.608;12.190;2022-07-23T04:17:22;6.55;;;5.40;;
13319;SDS011;59599;47.608;12.190;2022-07-23T04:19:48;8.82;;;5.50;;
13319;SDS011;59599;47.608;12.190;2022-07-23T04:22:14;6.55;;;5.38;;
13319;SDS011;59599;47.608;12.190;2022-07-23T04:24:40;6.07;;;5.38;;
13319;SDS011;59599;47.608;12.190;2022-07-23T04:27:06;6.15;;;5.55;;
13319;SDS011;59599;47.608;12.190;2022-07-23T04:29:32;6.40;;;5.50;;
13319;SDS011;59599;47.608;12.190;2022-07-23T04:31:57;11.60;;;5.60;;
13319;SDS011;59599;47.608;12.190;2022-07-23T04:34:23;9.85;;;5.90;;
13319;SDS011;59599;47.608;12.190;2022-07-23T04:36:51;6.22;;;5.63;;
13319;SDS011;59599;47.608;12.190;2022-07-23T04:39:17;7.38;;;6.45;;
13319;SDS011;59599;47.608;12.190;2022-07-23T04:41:43;9.45;;;6.32;;
13319;SDS011;59599;47.608;12.190;2022-07-23T04:44:09;7.13;;;6.43;;
13319;SDS011;59599;47.608;12.190;2022-07-23T04:46:35;8.52;;;7.22;;
13319;SDS011;59599;47.608;12.190;2022-07-23T04:49:01;7.57;;;6.85;;
13319;SDS011;59599;47.608;12.190;2022-07-23T04:51:26;7.90;;;6.75;;
13319;SDS011;59599;47.608;12.190;2022-07-23T04:53:53;7.10;;;6.40;;
13319;SDS011;59599;47.608;12.190;2022-07-23T04:56:19;8.57;;;6.60;;
13319;SDS011;59599;47.608;12.190;2022-07-23T04:58:45;6.80;;;6.20;;
13319;SDS011;59599;47.608;12.190;2022-07-23T05:01:11;7.28;;;6.20;;
13319;SDS011;59599;47.608;12.190;2022-07-23T05:03:37;7.63;;;6.53;;
13319;SDS011;59599;47.608;12.190;2022-07-23T05:06:03;9.07;;;5.90;;
13319;SDS011;59599;47.608;12.190;2022-07-23T05:08:29;6.85;;;6.25;;
13319;SDS011;59599;47.608;12.190;2022-07-23T05:10:54;5.97;;;5.47;;
13319;SDS011;59599;47.608;12.190;2022-07-23T05:13:20;7.00;;;5.90;;
13319;SDS011;59599;47.608;12.190;2022-07-23T05:15:46;5.60;;;5.20;;
13319;SDS011;59599;47.608;12.190;2022-07-23T05:18:12;5.75;;;4.80;;
13319;SDS011;59599;47.608;12.190;2022-07-23T05:20:38;6.53;;;4.88;;
13319;SDS011;59599;47.608;12.190;2022-07-23T05:23:04;5.85;;;4.70;;
13319;SDS011;59599;47.608;12.190;2022-07-23T05:25:30;5.57;;;4.82;;
13319;SDS011;59599;47.608;12.190;2022-07-23T05:27:55;6.20;;;4.70;;
13319;SDS011;59599;47.608;12.190;2022-07-23T05:30:21;5.50;;;5.00;;
13319;SDS011;59599;47.608;12.190;2022-07-23T05:32:47;6.63;;;5.78;;
13319;SDS011;59599;47.608;12.190;2022-07-23T05:35:13;7.20;;;6.47;;
13319;SDS011;59599;47.608;12.190;2022-07-23T05:37:39;7.20;;;5.82;;
13319;SDS011;59599;47.608;12.190;2022-07-23T05:40:06;6.78;;;6.18;;
13319;SDS011;59599;47.608;12.190;2022-07-23T05:42:33;7.07;;;6.10;;
13319;SDS011;59599;47.608;12.190;2022-07-23T05:45:00;5.78;;;5.25;;
13319;SDS011;59599;47.608;12.190;2022-07-23T05:47:25;5.45;;;4.95;;
13319;SDS011;59599;47.608;12.190;2022-07-23T05:49:51;5.60;;;5.10;;
13319;SDS011;59599;47.608;12.190;2022-07-23T05:52:18;6.85;;;5.13;;
13319;SDS011;59599;47.608;12.190;2022-07-23T05:54:43;5.15;;;4.75;;
13319;SDS011;59599;47.608;12.190;2022-07-23T05:57:09;5.65;;;5.10;;
13319;SDS011;59599;47.608;12.190;2022-07-23T05:59:35;9.20;;;5.57;;
13319;SDS011;59599;47.608;12.190;2022-07-23T06:02:01;6.05;;;5.55;;
13319;SDS011;59599;47.608;12.190;2022-07-23T06:04:27;6.80;;;5.55;;
13319;SDS011;59599;47.608;12.190;2022-07-23T06:06:53;6.53;;;5.82;;
13319;SDS011;59599;47.608;12.190;2022-07-23T06:09:19;6.22;;;5.63;;
13319;SDS011;59599;47.608;12.190;2022-07-23T06:11:45;6.90;;;6.20;;
13319;SDS011;59599;47.608;12.190;2022-07-23T06:14:11;6.50;;;5.65;;
13319;SDS011;59599;47.608;12.190;2022-07-23T06:16:36;6.32;;;5.70;;
13319;SDS011;59599;47.608;12.190;2022-07-23T06:19:02;7.63;;;6.22;;
13319;SDS011;59599;47.608;12.190;2022-07-23T06:21:28;6.32;;;5.72;;
13319;SDS011;59599;47.608;12.190;2022-07-23T06:23:53;10.02;;;5.97;;
13319;SDS011;59599;47.608;12.190;2022-07-23T06:26:19;8.05;;;6.40;;
13319;SDS011;59599;47.608;12.190;2022-07-23T06:28:45;6.35;;;5.60;;
13319;SDS011;59599;47.608;12.190;2022-07-23T06:31:11;6.85;;;6.15;;
13319;SDS011;59599;47.608;12.190;2022-07-23T06:33:37;6.00;;;5.40;;
13319;SDS011;59599;47.608;12.190;2022-07-23T06:36:02;6.15;;;5.55;;
13319;SDS011;59599;47.608;12.190;2022-07-23T06:38:28;7.25;;;5.45;;
13319;SDS011;59599;47.608;12.190;2022-07-23T06:40:54;6.53;;;5.65;;
13319;SDS011;59599;47.608;12.190;2022-07-23T06:43:20;6.15;;;5.55;;
13319;SDS011;59599;47.608;12.190;2022-07-23T06:45:46;6.40;;;5.30;;
13319;SDS011;59599;47.608;12.190;2022-07-23T06:48:12;5.40;;;4.90;;
13319;SDS011;59599;47.608;12.190;2022-07-23T06:50:38;10.13;;;5.47;;
13319;SDS011;59599;47.608;12.190;2022-07-23T06:53:04;7.18;;;4.95;;
13319;SDS011;59599;47.608;12.190;2022-07-23T06:55:30;7.43;;;5.25;;
13319;SDS011;59599;47.608;12.190;2022-07-23T06:57:56;5.53;;;5.03;;
13319;SDS011;59599;47.608;12.190;2022-07-23T07:00:22;7.82;;;5.55;;
13319;SDS011;59599;47.608;12.190;2022-07-23T07:02:48;5.88;;;5.25;;
13319;SDS011;59599;47.608;12.190;2022-07-23T07:05:14;5.90;;;5.30;;
13319;SDS011;59599;47.608;12.190;2022-07-23T07:07:39;6.85;;;5.20;;
13319;SDS011;59599;47.608;12.190;2022-07-23T07:10:06;5.68;;;5.18;;
13319;SDS011;59599;47.608;12.190;2022-07-23T07:12:31;6.15;;;5.55;;
13319;SDS011;59599;47.608;12.190;2022-07-23T07:14:57;6.45;;;5.50;;
13319;SDS011;59599;47.608;12.190;2022-07-23T07:17:23;6.03;;;5.28;;
13319;SDS011;59599;47.608;12.190;2022-07-23T07:19:49;6.43;;;5.75;;
13319;SDS011;59599;47.608;12.190;2022-07-23T07:22:14;6.10;;;5.32;;
13319;SDS011;59599;47.608;12.190;2022-07-23T07:24:40;5.78;;;5.28;;
13319;SDS011;59599;47.608;12.190;2022-07-23T07:27:06;5.63;;;4.60;;
13319;SDS011;59599;47.608;12.190;2022-07-23T07:29:32;5.80;;;5.00;;
13319;SDS011;59599;47.608;12.190;2022-07-23T07:31:58;7.82;;;4.60;;
13319;SDS011;59599;47.608;12.190;2022-07-23T07:34:23;5.05;;;4.55;;
13319;SDS011;59599;47.608;12.190;2022-07-23T07:36:49;5.55;;;5.00;;
13319;SDS011;59599;47.608;12.190;2022-07-23T07:39:15;5.22;;;4.72;;
13319;SDS011;59599;47.608;12.190;2022-07-23T07:41:41;5.32;;;4.82;;
13319;SDS011;59599;47.608;12.190;2022-07-23T07:44:07;5.40;;;4.90;;
13319;SDS011;59599;47.608;12.190;2022-07-23T07:46:33;6.40;;;5.45;;
13319;SDS011;59599;47.608;12.190;2022-07-23T07:48:59;6.47;;;5.88;;
13319;SDS011;59599;47.608;12.190;2022-07-23T07:51:25;6.63;;;5.68;;
13319;SDS011;59599;47.608;12.190;2022-07-23T07:53:52;5.97;;;5.40;;
13319;SDS011;59599;47.608;12.190;2022-07-23T07:56:17;5.78;;;5.28;;
13319;SDS011;59599;47.608;12.190;2022-07-23T07:58:43;6.40;;;5.20;;
13319;SDS011;59599;47.608;12.190;2022-07-23T08:01:09;6.07;;;5.40;;
13319;SDS011;59599;47.608;12.190;2022-07-23T08:03:35;6.15;;;5.55;;
13319;SDS011;59599;47.608;12.190;2022-07-23T08:06:01;7.18;;;5.70;;
13319;SDS011;59599;47.608;12.190;2022-07-23T08:08:27;5.65;;;5.15;;
13319;SDS011;59599;47.608;12.190;2022-07-23T08:10:52;5.53;;;4.95;;
13319;SDS011;59599;47.608;12.190;2022-07-23T08:13:18;4.85;;;4.45;;
13319;SDS011;59599;47.608;12.190;2022-07-23T08:15:44;6.05;;;4.63;;
13319;SDS011;59599;47.608;12.190;2022-07-23T08:18:10;6.10;;;4.05;;
13319;SDS011;59599;47.608;12.190;2022-07-23T08:20:36;7.07;;;4.20;;
13319;SDS011;59599;47.608;12.190;2022-07-23T08:23:03;4.22;;;3.83;;
13319;SDS011;59599;47.608;12.190;2022-07-23T08:25:31;6.10;;;4.30;;
13319;SDS011;59599;47.608;12.190;2022-07-23T08:28:03;6.55;;;4.45;;
13319;SDS011;59599;47.608;12.190;2022-07-23T08:30:31;5.72;;;4.20;;
13319;SDS011;59599;47.608;12.190;2022-07-23T08:32:59;4.72;;;4.18;;
13319;SDS011;59599;47.608;12.190;2022-07-23T08:35:33;4.72;;;4.13;;
13319;SDS011;59599;47.608;12.190;2022-07-23T08:38:00;5.00;;;4.07;;
13319;SDS011;59599;47.608;12.190;2022-07-23T08:40:28;4.32;;;3.92;;
13319;SDS011;59599;47.608;12.190;2022-07-23T08:42:55;4.72;;;4.20;;
13319;SDS011;59599;47.608;12.190;2022-07-23T08:45:22;4.72;;;4.32;;
13319;SDS011;59599;47.608;12.190;2022-07-23T08:47:49;5.57;;;4.63;;
13319;SDS011;59599;47.608;12.190;2022-07-23T08:50:16;6.88;;;5.03;;
13319;SDS011;59599;47.608;12.190;2022-07-23T08:52:42;8.10;;;5.25;;
13319;SDS011;59599;47.608;12.190;2022-07-23T08:55:08;6.15;;;4.78;;
13319;SDS011;59599;47.608;12.190;2022-07-23T08:57:34;5.82;;;5.00;;
13319;SDS011;59599;47.608;12.190;2022-07-23T08:59:59;5.60;;;5.07;;
13319;SDS011;59599;47.608;12.190;2022-07-23T09:02:25;5.57;;;4.88;;
13319;SDS011;59599;47.608;12.190;2022-07-23T09:04:51;5.68;;;4.53;;
13319;SDS011;59599;47.608;12.190;2022-07-23T09:07:17;5.28;;;4.78;;
13319;SDS011;59599;47.608;12.190;2022-07-23T09:09:43;5.85;;;4.38;;
13319;SDS011;59599;47.608;12.190;2022-07-23T09:12:10;5.47;;;4.13;;
13319;SDS011;59599;47.608;12.190;2022-07-23T09:14:36;6.47;;;3.88;;
13319;SDS011;59599;47.608;12.190;2022-07-23T09:17:10;5.63;;;4.35;;
13319;SDS011;59599;47.608;12.190;2022-07-23T09:19:37;6.05;;;3.92;;
13319;SDS011;59599;47.608;12.190;2022-07-23T09:22:16;5.97;;;4.40;;
13319;SDS011;59599;47.608;12.190;2022-07-23T09:30:18;4.45;;;3.65;;
13319;SDS011;59599;47.608;12.190;2022-07-23T09:33:03;4.72;;;4.20;;
13319;SDS011;59599;47.608;12.190;2022-07-23T09:35:43;5.22;;;4.72;;
13319;SDS011;59599;47.608;12.190;2022-07-23T09:38:08;6.85;;;4.43;;
13319;SDS011;59599;47.608;12.190;2022-07-23T09:40:34;4.55;;;4.15;;
13319;SDS011;59599;47.608;12.190;2022-07-23T09:43:00;6.97;;;4.90;;
13319;SDS011;59599;47.608;12.190;2022-07-23T09:45:25;4.70;;;4.30;;
13319;SDS011;59599;47.608;12.190;2022-07-23T09:47:51;5.93;;;4.85;;
13319;SDS011;59599;47.608;12.190;2022-07-23T09:50:39;5.03;;;4.60;;
13319;SDS011;59599;47.608;12.190;2022-07-23T09:53:06;4.10;;;3.80;;
13319;SDS011;59599;47.608;12.190;2022-07-23T09:55:32;5.82;;;4.70;;
13319;SDS011;59599;47.608;12.190;2022-07-23T09:58:05;5.25;;;4.10;;
13319;SDS011;59599;47.608;12.190;2022-07-23T10:00:38;4.10;;;3.70;;
13319;SDS011;59599;47.608;12.190;2022-07-23T10:03:05;4.47;;;4.05;;
13319;SDS011;59599;47.608;12.190;2022-07-23T10:05:31;4.13;;;3.83;;
13319;SDS011;59599;47.608;12.190;2022-07-23T10:08:00;5.05;;;3.63;;
13319;SDS011;59599;47.608;12.190;2022-07-23T10:10:27;4.03;;;3.63;;
13319;SDS011;59599;47.608;12.190;2022-07-23T10:12:54;4.57;;;3.50;;
13319;SDS011;59599;47.608;12.190;2022-07-23T10:15:49;4.20;;;3.80;;
13319;SDS011;59599;47.608;12.190;2022-07-23T10:18:15;5.43;;;4.57;;
13319;SDS011;59599;47.608;12.190;2022-07-23T10:20:41;5.65;;;4.00;;
13319;SDS011;59599;47.608;12.190;2022-07-23T10:23:22;7.35;;;4.50;;
13319;SDS011;59599;47.608;12.190;2022-07-23T10:31:49;4.70;;;4.20;;
13319;SDS011;59599;47.608;12.190;2022-07-23T10:34:24;5.90;;;4.28;;
13319;SDS011;59599;47.608;12.190;2022-07-23T10:37:05;4.30;;;4.00;;
13319;SDS011;59599;47.608;12.190;2022-07-23T10:39:49;6.13;;;4.53;;
13319;SDS011;59599;47.608;12.190;2022-07-23T10:42:42;4.47;;;4.07;;
13319;SDS011;59599;47.608;12.190;2022-07-23T10:47:51;4.68;;;4.28;;
13319;SDS011;59599;47.608;12.190;2022-07-23T10:50:24;5.78;;;4.50;;
13319;SDS011;59599;47.608;12.190;2022-07-23T10:53:08;4.32;;;3.97;;
13319;SDS011;59599;47.608;12.190;2022-07-23T10:55:39;4.40;;;4.00;;
13319;SDS011;59599;47.608;12.190;2022-07-23T10:58:06;4.30;;;3.90;;
13319;SDS011;59599;47.608;12.190;2022-07-23T11:00:33;4.13;;;3.72;;
13319;SDS011;59599;47.608;12.190;2022-07-23T11:03:04;4.78;;;4.38;;
13319;SDS011;59599;47.608;12.190;2022-07-23T11:05:50;5.28;;;4.10;;
13319;SDS011;59599;47.608;12.190;2022-07-23T11:08:19;3.95;;;3.65;;
13319;SDS011;59599;47.608;12.190;2022-07-23T11:10:46;3.90;;;3.60;;
13319;SDS011;59599;47.608;12.190;2022-07-23T11:19:08;4.45;;;3.75;;
13319;SDS011;59599;47.608;12.190;2022-07-23T11:31:55;5.30;;;3.95;;
13319;SDS011;59599;47.608;12.190;2022-07-23T11:34:31;4.35;;;3.95;;
13319;SDS011;59599;47.608;12.190;2022-07-23T11:36:58;3.50;;;3.20;;
13319;SDS011;59599;47.608;12.190;2022-07-23T11:39:25;3.75;;;3.00;;
13319;SDS011;59599;47.608;12.190;2022-07-23T11:41:52;3.67;;;3.38;;
13319;SDS011;59599;47.608;12.190;2022-07-23T11:44:30;3.50;;;3.20;;
13319;SDS011;59599;47.608;12.190;2022-07-23T11:46:58;3.60;;;3.13;;
13319;SDS011;59599;47.608;12.190;2022-07-23T11:49:24;4.18;;;3.50;;
13319;SDS011;59599;47.608;12.190;2022-07-23T11:52:12;4.45;;;3.65;;
13319;SDS011;59599;47.608;12.190;2022-07-23T11:54:48;4.15;;;3.75;;
13319;SDS011;59599;47.608;12.190;2022-07-23T11:57:32;3.35;;;3.13;;
13319;SDS011;59599;47.608;12.190;2022-07-23T12:02:31;3.90;;;3.50;;
13319;SDS011;59599;47.608;12.190;2022-07-23T12:04:56;5.82;;;3.60;;
13319;SDS011;59599;47.608;12.190;2022-07-23T12:07:23;4.07;;;3.58;;
13319;SDS011;59599;47.608;12.190;2022-07-23T12:09:52;4.13;;;3.78;;
13319;SDS011;59599;47.608;12.190;2022-07-23T12:12:19;4.43;;;3.40;;
13319;SDS011;59599;47.608;12.190;2022-07-23T12:14:52;4.13;;;3.65;;
13319;SDS011;59599;47.608;12.190;2022-07-23T12:17:20;5.57;;;3.67;;
13319;SDS011;59599;47.608;12.190;2022-07-23T12:19:51;3.72;;;3.40;;
13319;SDS011;59599;47.608;12.190;2022-07-23T12:22:17;7.68;;;3.63;;
13319;SDS011;59599;47.608;12.190;2022-07-23T12:24:53;3.70;;;3.33;;
13319;SDS011;59599;47.608;12.190;2022-07-23T12:27:20;3.70;;;3.40;;
13319;SDS011;59599;47.608;12.190;2022-07-23T12:29:46;4.00;;;3.65;;
13319;SDS011;59599;47.608;12.190;2022-07-23T12:32:25;4.50;;;3.75;;
13319;SDS011;59599;47.608;12.190;2022-07-23T12:35:08;6.05;;;4.30;;
13319;SDS011;59599;47.608;12.190;2022-07-23T12:40:19;3.80;;;3.40;;
13319;SDS011;59599;47.608;12.190;2022-07-23T12:42:54;4.20;;;3.80;;
13319;SDS011;59599;47.608;12.190;2022-07-23T12:45:24;4.82;;;3.90;;
13319;SDS011;59599;47.608;12.190;2022-07-23T12:47:51;4.43;;;3.70;;
13319;SDS011;59599;47.608;12.190;2022-07-23T12:53:09;4.45;;;3.97;;
13319;SDS011;59599;47.608;12.190;2022-07-23T12:55:43;4.10;;;3.70;;
13319;SDS011;59599;47.608;12.190;2022-07-23T12:58:10;3.70;;;3.40;;
13319;SDS011;59599;47.608;12.190;2022-07-23T13:00:54;3.67;;;3.38;;
13319;SDS011;59599;47.608;12.190;2022-07-23T13:03:23;4.15;;;3.45;;
13319;SDS011;59599;47.608;12.190;2022-07-23T13:05:53;4.72;;;3.30;;
13319;SDS011;59599;47.608;12.190;2022-07-23T13:08:19;3.65;;;2.95;;
13319;SDS011;59599;47.608;12.190;2022-07-23T13:10:45;3.72;;;3.40;;
13319;SDS011;59599;47.608;12.190;2022-07-23T13:13:13;3.85;;;3.33;;
13319;SDS011;59599;47.608;12.190;2022-07-23T13:15:49;3.42;;;3.13;;
13319;SDS011;59599;47.608;12.190;2022-07-23T13:18:15;4.38;;;3.97;;
13319;SDS011;59599;47.608;12.190;2022-07-23T13:20:41;4.57;;;4.03;;
13319;SDS011;59599;47.608;12.190;2022-07-23T13:23:08;6.30;;;3.67;;
13319;SDS011;59599;47.608;12.190;2022-07-23T13:25:33;4.00;;;3.60;;
13319;SDS011;59599;47.608;12.190;2022-07-23T13:27:59;3.60;;;3.30;;
13319;SDS011;59599;47.608;12.190;2022-07-23T13:30:25;3.70;;;3.40;;
13319;SDS011;59599;47.608;12.190;2022-07-23T13:32:51;4.95;;;3.42;;
13319;SDS011;59599;47.608;12.190;2022-07-23T13:35:17;4.53;;;3.40;;
13319;SDS011;59599;47.608;12.190;2022-07-23T13:37:43;4.78;;;3.53;;
13319;SDS011;59599;47.608;12.190;2022-07-23T13:40:08;4.15;;;3.75;;
13319;SDS011;59599;47.608;12.190;2022-07-23T13:42:34;4.68;;;3.55;;
13319;SDS011;59599;47.608;12.190;2022-07-23T13:45:00;5.38;;;4.10;;
13319;SDS011;59599;47.608;12.190;2022-07-23T13:47:26;6.50;;;3.80;;
13319;SDS011;59599;47.608;12.190;2022-07-23T13:49:52;4.00;;;3.45;;
13319;SDS011;59599;47.608;12.190;2022-07-23T13:52:18;4.05;;;3.67;;
13319;SDS011;59599;47.608;12.190;2022-07-23T13:54:43;4.40;;;4.00;;
13319;SDS011;59599;47.608;12.190;2022-07-23T13:57:09;4.38;;;3.33;;
13319;SDS011;59599;47.608;12.190;2022-07-23T13:59:35;4.60;;;3.35;;
13319;SDS011;59599;47.608;12.190;2022-07-23T14:02:02;6.22;;;3.83;;
13319;SDS011;59599;47.608;12.190;2022-07-23T14:04:28;5.32;;;3.70;;
13319;SDS011;59599;47.608;12.190;2022-07-23T14:06:54;5.72;;;4.03;;
13319;SDS011;59599;47.608;12.190;2022-07-23T14:09:20;5.20;;;3.80;;
13319;SDS011;59599;47.608;12.190;2022-07-23T14:11:46;4.63;;;4.07;;
13319;SDS011;59599;47.608;12.190;2022-07-23T14:14:12;4.65;;;4.00;;
13319;SDS011;59599;47.608;12.190;2022-07-23T14:16:38;6.32;;;4.50;;
13319;SDS011;59599;47.608;12.190;2022-07-23T14:19:04;5.75;;;4.10;;
13319;SDS011;59599;47.608;12.190;2022-07-23T14:21:30;4.18;;;3.78;;
13319;SDS011;59599;47.608;12.190;2022-07-23T14:23:56;4.43;;;3.97;;
13319;SDS011;59599;47.608;12.190;2022-07-23T14:26:22;7.18;;;4.50;;
13319;SDS011;59599;47.608;12.190;2022-07-23T14:28:48;4.55;;;3.80;;
13319;SDS011;59599;47.608;12.190;2022-07-23T14:31:15;6.45;;;4.55;;
13319;SDS011;59599;47.608;12.190;2022-07-23T14:33:41;4.10;;;3.70;;
13319;SDS011;59599;47.608;12.190;2022-07-23T14:36:07;4.60;;;4.00;;
13319;SDS011;59599;47.608;12.190;2022-07-23T14:38:33;3.70;;;3.40;;
13319;SDS011;59599;47.608;12.190;2022-07-23T14:40:59;5.90;;;3.90;;
13319;SDS011;59599;47.608;12.190;2022-07-23T14:43:25;4.45;;;3.80;;
13319;SDS011;59599;47.608;12.190;2022-07-23T14:45:51;7.32;;;4.25;;
13319;SDS011;59599;47.608;12.190;2022-07-23T14:48:16;3.88;;;3.58;;
13319;SDS011;59599;47.608;12.190;2022-07-23T14:50:42;4.97;;;3.90;;
13319;SDS011;59599;47.608;12.190;2022-07-23T14:53:08;5.00;;;4.10;;
13319;SDS011;59599;47.608;12.190;2022-07-23T14:55:34;4.00;;;3.60;;
13319;SDS011;59599;47.608;12.190;2022-07-23T14:58:00;5.10;;;3.70;;
13319;SDS011;59599;47.608;12.190;2022-07-23T15:00:26;8.57;;;4.03;;
13319;SDS011;59599;47.608;12.190;2022-07-23T15:02:52;6.70;;;4.15;;
13319;SDS011;59599;47.608;12.190;2022-07-23T15:05:18;3.85;;;3.53;;
13319;SDS011;59599;47.608;12.190;2022-07-23T15:07:44;4.18;;;3.50;;
13319;SDS011;59599;47.608;12.190;2022-07-23T15:10:11;3.70;;;3.33;;
13319;SDS011;59599;47.608;12.190;2022-07-23T15:12:37;4.43;;;3.53;;
13319;SDS011;59599;47.608;12.190;2022-07-23T15:15:03;4.45;;;3.65;;
13319;SDS011;59599;47.608;12.190;2022-07-23T15:17:29;5.45;;;3.90;;